Terminal Aerodrome Forecast
Issued by NWS

Home | Current Version | Previous Version | Text Only | Print | Product List | Glossary On
Versions: 1 2 3 4 5 6 7 8 9 10 11 12 13 14
509
FTUS43 KEAX 120539
TAFSTJ
TAF
KSTJ 120539Z 1206/1306 09007KT P6SM SCT080 BKN100
     FM120900 35007KT P6SM SCT025 BKN035
      TEMPO 1210/1214 BKN025
     FM121500 35012G20KT P6SM SCT025
     FM122300 02009KT P6SM SCT100=

USA.gov is the U.S. government's official web portal to all federal, state and local government web resources and services.